Terminal Aerodrome Forecast
Issued by NWS Caribou, ME

Home | Current Version | Previous Version | Text Only | Print | Product List | Glossary On
Versions: 1 2 3 4 5 6 7 8 9 10 11 12 13 14 15 16 17
000
FTUS41 KCAR 261100
TAFBGR
TAF
KBGR 261123Z 2612/2712 22003KT 6SM HZ SCT250
     FM261400 23006KT P6SM SCT250
     FM261800 22010KT P6SM BKN070
     FM270200 19006KT P6SM SCT070 BKN250
     FM270800 18004KT 4SM BR SCT010=

USA.gov is the U.S. government's official web portal to all federal, state and local government web resources and services.